createdAt,value
2022-09-05T00:01:59.126Z,14.70
2022-09-05T00:04:34.198Z,14.70
2022-09-05T00:07:41.296Z,14.60
2022-09-05T00:10:23.036Z,14.60
2022-09-05T00:12:50.993Z,14.60
2022-09-05T00:15:53.339Z,14.60
2022-09-05T00:20:49.694Z,14.60
2022-09-05T00:24:34.977Z,14.50
2022-09-05T00:25:00.950Z,14.50
2022-09-05T00:27:41.676Z,14.50
2022-09-05T00:31:06.935Z,14.50
2022-09-05T00:33:16.967Z,14.50
2022-09-05T00:35:50.570Z,14.40
2022-09-05T00:38:19.330Z,14.40
2022-09-05T00:40:57.120Z,14.40
2022-09-05T00:43:32.535Z,14.30
2022-09-05T00:46:01.212Z,14.40
2022-09-05T00:48:46.860Z,14.40
2022-09-05T00:51:34.420Z,14.30
2022-09-05T00:54:01.683Z,14.30
2022-09-05T00:56:54.709Z,14.30
2022-09-05T00:59:24.153Z,14.30
2022-09-05T01:02:00.054Z,14.30
2022-09-05T01:04:35.138Z,14.20
2022-09-05T01:07:06.942Z,14.20
2022-09-05T01:09:44.644Z,14.20
2022-09-05T01:12:14.402Z,14.10
2022-09-05T01:14:59.891Z,14.10
2022-09-05T01:17:32.816Z,14.10
2022-09-05T01:20:28.220Z,14.10
2022-09-05T01:23:18.234Z,14.10
2022-09-05T01:25:55.109Z,14.10
2022-09-05T01:29:16.895Z,14.00
2022-09-05T01:31:21.270Z,14.00
2022-09-05T01:34:03.348Z,14.00
2022-09-05T01:37:05.653Z,14.00
2022-09-05T01:40:15.475Z,14.00
2022-09-05T01:42:31.632Z,14.00
2022-09-05T01:45:17.497Z,13.90
2022-09-05T01:47:50.589Z,14.00
2022-09-05T01:50:35.666Z,13.90
2022-09-05T01:53:04.459Z,13.90
2022-09-05T01:56:04.981Z,13.90
2022-09-05T01:58:56.665Z,13.90
2022-09-05T02:01:32.447Z,13.90
2022-09-05T02:04:18.447Z,13.90
2022-09-05T02:06:53.998Z,13.90
2022-09-05T02:09:32.881Z,13.90
2022-09-05T02:12:22.374Z,13.90
2022-09-05T02:15:04.149Z,13.90
2022-09-05T02:17:50.867Z,13.90
2022-09-05T02:20:23.591Z,13.90
2022-09-05T02:22:53.559Z,13.80
2022-09-05T02:26:01.078Z,13.80
2022-09-05T02:28:14.950Z,13.70
2022-09-05T02:31:06.765Z,13.70
2022-09-05T02:33:34.453Z,13.70
2022-09-05T02:36:01.229Z,13.70
2022-09-05T02:40:54.626Z,13.70
2022-09-05T02:45:13.246Z,13.60
2022-09-05T02:45:20.774Z,13.60
2022-09-05T02:47:24.322Z,13.60
2022-09-05T02:53:59.148Z,13.60
2022-09-05T02:57:33.269Z,13.50
2022-09-05T02:57:37.040Z,13.50
2022-09-05T02:59:08.732Z,13.50
2022-09-05T03:01:31.124Z,13.50
2022-09-05T03:04:12.917Z,13.50
2022-09-05T03:06:45.589Z,13.50
2022-09-05T03:09:17.876Z,13.50
2022-09-05T03:11:56.473Z,13.40
2022-09-05T03:14:35.424Z,13.50
2022-09-05T03:17:02.217Z,13.40
2022-09-05T03:19:46.224Z,13.40
2022-09-05T03:22:49.030Z,13.40
2022-09-05T03:25:34.440Z,13.40
2022-09-05T03:28:16.350Z,13.40
2022-09-05T03:30:43.058Z,13.40
2022-09-05T03:33:28.595Z,13.40
2022-09-05T03:35:58.368Z,13.40
2022-09-05T03:38:40.388Z,13.40
2022-09-05T03:41:19.196Z,13.40
2022-09-05T03:44:01.626Z,13.30
2022-09-05T03:46:48.926Z,13.30
2022-09-05T03:50:27.434Z,13.30
2022-09-05T03:57:11.314Z,13.30
2022-09-05T03:57:17.661Z,13.30
2022-09-05T03:58:18.089Z,13.30
2022-09-05T04:01:38.539Z,13.30
2022-09-05T04:08:10.294Z,13.20
2022-09-05T04:08:24.666Z,13.20
2022-09-05T04:09:51.519Z,13.10
2022-09-05T04:12:20.543Z,13.10
2022-09-05T04:15:06.159Z,13.10
2022-09-05T04:17:37.686Z,13.10
2022-09-05T04:20:13.239Z,13.10
2022-09-05T04:22:48.983Z,13.10
2022-09-05T04:25:24.916Z,13.00
2022-09-05T04:28:01.857Z,13.00
2022-09-05T04:30:39.311Z,13.10
2022-09-05T04:33:12.673Z,13.10
2022-09-05T04:35:58.430Z,13.00
2022-09-05T04:38:40.985Z,12.90
2022-09-05T04:41:15.753Z,12.90
2022-09-05T04:43:48.708Z,12.90
2022-09-05T04:46:22.725Z,12.90
2022-09-05T04:49:07.988Z,13.00
2022-09-05T04:51:34.631Z,13.00
2022-09-05T04:54:07.998Z,13.00
2022-09-05T04:56:37.986Z,13.00
2022-09-05T05:00:49.789Z,13.00
2022-09-05T05:06:15.941Z,13.00
2022-09-05T05:06:20.300Z,13.10
2022-09-05T05:08:01.556Z,13.10
2022-09-05T05:11:02.487Z,13.10
2022-09-05T05:17:57.528Z,13.20
2022-09-05T05:18:15.786Z,13.20
2022-09-05T05:19:17.214Z,13.20
2022-09-05T05:21:49.300Z,13.20
2022-09-05T05:24:17.629Z,13.20
2022-09-05T05:26:48.602Z,13.20
2022-09-05T05:29:43.408Z,13.20
2022-09-05T05:32:15.828Z,13.30
2022-09-05T05:35:07.595Z,13.30
2022-09-05T05:37:45.818Z,13.30
2022-09-05T05:40:15.617Z,13.40
2022-09-05T05:42:42.984Z,13.40
2022-09-05T05:45:29.950Z,13.50
2022-09-05T05:48:01.485Z,13.50
2022-09-05T05:50:28.127Z,13.60
2022-09-05T05:52:54.759Z,13.60
2022-09-05T05:55:50.701Z,13.70
2022-09-05T05:58:08.063Z,13.80
2022-09-05T06:00:58.001Z,13.80
2022-09-05T06:03:32.949Z,13.80
2022-09-05T06:06:19.919Z,13.90
2022-09-05T06:11:40.242Z,14.00
2022-09-05T06:14:57.618Z,14.00
2022-09-05T06:15:14.159Z,14.10
2022-09-05T06:17:55.430Z,14.20
2022-09-05T06:22:11.281Z,14.20
2022-09-05T06:23:39.882Z,14.30
2022-09-05T06:26:25.748Z,14.30
2022-09-05T06:28:55.460Z,14.40
2022-09-05T06:31:31.396Z,14.50
2022-09-05T06:34:04.458Z,14.60
2022-09-05T06:36:49.840Z,14.70
2022-09-05T06:39:19.571Z,14.70
2022-09-05T06:42:05.303Z,14.80
2022-09-05T06:44:35.217Z,14.90
2022-09-05T06:47:24.313Z,15.10
2022-09-05T06:49:56.791Z,15.20
2022-09-05T06:52:30.417Z,15.30
2022-09-05T06:55:06.315Z,15.50
2022-09-05T06:57:32.965Z,15.60
2022-09-05T07:00:05.812Z,15.70
2022-09-05T07:02:59.003Z,15.80
2022-09-05T07:05:45.152Z,16.00
2022-09-05T07:08:26.724Z,16.10
2022-09-05T07:11:11.441Z,16.20
2022-09-05T07:13:54.824Z,16.30
2022-09-05T07:16:37.426Z,16.30
2022-09-05T07:19:10.164Z,16.40
2022-09-05T07:21:41.811Z,16.60
2022-09-05T07:24:34.643Z,16.60
2022-09-05T07:27:10.558Z,16.70
2022-09-05T07:29:52.397Z,16.80
2022-09-05T07:32:28.711Z,17.00
2022-09-05T07:34:56.838Z,17.10
2022-09-05T07:37:25.698Z,17.20
2022-09-05T07:39:58.439Z,17.30
2022-09-05T07:42:43.605Z,17.40
2022-09-05T07:45:16.900Z,17.40
2022-09-05T07:47:48.699Z,17.60
2022-09-05T07:54:08.954Z,17.60
2022-09-05T07:56:53.849Z,17.70
2022-09-05T07:57:10.576Z,17.70
2022-09-05T07:58:51.826Z,17.80
2022-09-05T08:01:21.281Z,17.90
2022-09-05T08:03:54.062Z,18.00
2022-09-05T08:07:45.666Z,18.20
2022-09-05T08:10:08.954Z,18.30
2022-09-05T08:12:10.119Z,18.40
2022-09-05T08:14:49.000Z,18.50
2022-09-05T08:17:18.924Z,18.50
2022-09-05T08:20:12.130Z,18.50
2022-09-05T08:22:59.017Z,18.50
2022-09-05T08:25:37.629Z,18.60
2022-09-05T08:28:23.007Z,18.70
2022-09-05T08:30:56.074Z,18.70
2022-09-05T08:33:32.226Z,18.70
2022-09-05T08:36:05.245Z,18.70
2022-09-05T08:38:37.420Z,18.80
2022-09-05T08:41:17.687Z,18.90
2022-09-05T08:46:35.945Z,19.10
2022-09-05T08:46:53.322Z,19.20
2022-09-05T08:49:32.388Z,19.20
2022-09-05T08:52:28.421Z,19.30
2022-09-05T08:55:05.828Z,19.40
2022-09-05T08:57:46.223Z,19.50
2022-09-05T09:00:24.530Z,19.60
2022-09-05T09:03:04.761Z,19.60
2022-09-05T09:06:14.161Z,19.60
2022-09-05T09:09:03.360Z,19.70
2022-09-05T09:11:38.404Z,19.80
2022-09-05T09:14:30.456Z,19.80
2022-09-05T09:17:16.566Z,19.90
2022-09-05T09:19:46.463Z,20.10
2022-09-05T09:22:13.129Z,20.20
2022-09-05T09:24:51.716Z,20.30
2022-09-05T09:28:42.062Z,20.40
2022-09-05T09:30:22.494Z,20.40
2022-09-05T09:32:50.023Z,20.40
2022-09-05T09:35:20.085Z,20.40
2022-09-05T09:38:19.380Z,20.40
2022-09-05T09:41:00.775Z,20.50
2022-09-05T09:43:50.183Z,20.50
2022-09-05T09:46:27.381Z,20.60
2022-09-05T09:49:00.250Z,20.60
2022-09-05T09:51:32.940Z,20.70
2022-09-05T09:54:12.183Z,20.70
2022-09-05T09:56:57.638Z,20.80
2022-09-05T09:59:54.540Z,20.90
2022-09-05T10:05:27.509Z,21.00
2022-09-05T10:10:38.669Z,21.10
2022-09-05T10:10:43.933Z,21.30
2022-09-05T10:13:46.986Z,21.20
2022-09-05T10:16:26.014Z,21.20
2022-09-05T10:18:56.831Z,21.20
2022-09-05T10:21:32.417Z,21.30
2022-09-05T10:24:18.152Z,21.30
2022-09-05T10:27:03.170Z,21.30
2022-09-05T10:29:35.884Z,21.40
2022-09-05T10:35:11.522Z,21.50
2022-09-05T10:35:20.849Z,21.60
2022-09-05T10:37:52.040Z,21.70
2022-09-05T10:40:21.787Z,21.80
2022-09-05T10:43:14.128Z,21.80
2022-09-05T10:46:01.727Z,21.80
2022-09-05T10:48:35.143Z,21.90
2022-09-05T10:51:07.006Z,21.90
2022-09-05T10:53:41.582Z,22.00
2022-09-05T10:56:27.113Z,22.00
2022-09-05T11:01:08.314Z,22.00
2022-09-05T11:02:21.919Z,21.90
2022-09-05T11:05:11.114Z,21.90
2022-09-05T11:07:52.298Z,21.90
2022-09-05T11:10:31.550Z,22.10
2022-09-05T11:12:58.794Z,22.20
2022-09-05T11:15:28.466Z,22.30
2022-09-05T11:18:17.955Z,22.40
2022-09-05T11:21:17.253Z,22.40
2022-09-05T11:23:57.678Z,22.50
2022-09-05T11:26:24.385Z,22.60
2022-09-05T11:29:00.540Z,22.60
2022-09-05T11:31:49.078Z,22.60
2022-09-05T11:39:45.588Z,22.60
2022-09-05T11:40:07.749Z,22.50
2022-09-05T11:40:59.152Z,22.40
2022-09-05T11:43:40.126Z,22.40
2022-09-05T11:46:12.912Z,22.40
2022-09-05T11:48:58.427Z,22.30
2022-09-05T11:51:43.803Z,22.30
2022-09-05T11:54:29.284Z,22.20
2022-09-05T11:57:32.724Z,22.10
2022-09-05T12:00:33.768Z,22.00
2022-09-05T12:03:09.938Z,21.90
2022-09-05T12:05:48.856Z,22.00
2022-09-05T12:08:36.743Z,22.10
2022-09-05T12:11:22.319Z,22.20
2022-09-05T12:14:21.047Z,22.30
2022-09-05T12:17:10.316Z,22.30
2022-09-05T12:19:43.579Z,22.30
2022-09-05T12:22:32.001Z,22.60
2022-09-05T12:25:25.099Z,22.60
2022-09-05T12:31:07.167Z,22.80
2022-09-05T12:35:52.860Z,22.80
2022-09-05T12:40:55.074Z,23.00
2022-09-05T12:40:57.820Z,23.10
2022-09-05T12:42:08.290Z,22.70
2022-09-05T12:42:26.026Z,23.10
2022-09-05T12:45:08.925Z,23.30
2022-09-05T12:47:58.160Z,23.30
2022-09-05T12:50:54.950Z,23.40
2022-09-05T12:53:22.898Z,23.50
2022-09-05T12:57:05.153Z,23.50
2022-09-05T13:02:59.446Z,23.60
2022-09-05T13:03:11.662Z,23.80
2022-09-05T13:04:32.059Z,23.70
2022-09-05T13:07:02.283Z,23.80
2022-09-05T13:11:17.254Z,23.80
2022-09-05T13:14:53.535Z,23.80
2022-09-05T13:15:22.748Z,23.90
2022-09-05T13:18:10.169Z,24.10
2022-09-05T13:20:51.320Z,24.10
2022-09-05T13:23:17.993Z,24.10
2022-09-05T13:25:50.541Z,24.00
2022-09-05T13:28:20.020Z,24.00
2022-09-05T13:37:04.855Z,24.00
2022-09-05T13:37:58.206Z,24.10
2022-09-05T13:38:21.156Z,24.10
2022-09-05T13:39:50.477Z,24.10
2022-09-05T13:42:19.751Z,24.10
2022-09-05T13:44:47.884Z,24.20
2022-09-05T13:47:29.757Z,24.20
2022-09-05T13:50:05.373Z,24.20
2022-09-05T13:52:34.503Z,24.10
2022-09-05T13:55:06.450Z,24.10
2022-09-05T13:57:39.750Z,24.20
2022-09-05T14:00:06.446Z,24.20
2022-09-05T14:02:35.141Z,24.20
2022-09-05T14:05:20.562Z,24.20
2022-09-05T14:08:15.150Z,24.20
2022-09-05T14:10:47.895Z,24.10
2022-09-05T14:13:18.113Z,24.10
2022-09-05T14:15:54.018Z,24.20
2022-09-05T14:18:25.418Z,24.20
2022-09-05T14:21:14.107Z,24.20
2022-09-05T14:23:48.544Z,24.30
2022-09-05T14:26:20.685Z,24.30
2022-09-05T14:29:16.881Z,24.30
2022-09-05T14:37:36.765Z,24.30
2022-09-05T14:37:42.764Z,24.30
2022-09-05T14:38:05.741Z,24.30
2022-09-05T14:40:53.386Z,24.40
2022-09-05T14:43:38.904Z,24.40
2022-09-05T14:46:05.648Z,24.40
2022-09-05T14:48:53.314Z,24.40
2022-09-05T14:51:46.763Z,24.40
2022-09-05T15:00:38.621Z,24.40
2022-09-05T15:03:00.135Z,24.40
2022-09-05T15:03:04.652Z,24.40
2022-09-05T15:05:40.864Z,24.40
2022-09-05T15:09:11.434Z,24.40
2022-09-05T15:12:14.507Z,24.40
2022-09-05T15:13:57.145Z,24.30
2022-09-05T15:16:24.797Z,24.40
2022-09-05T15:18:53.248Z,24.30
2022-09-05T15:21:33.824Z,24.30
2022-09-05T15:24:06.083Z,24.30
2022-09-05T15:26:51.930Z,24.30
2022-09-05T15:29:21.815Z,24.30
2022-09-05T15:31:53.198Z,24.30
2022-09-05T15:34:35.524Z,24.30
2022-09-05T15:37:22.420Z,24.20
2022-09-05T15:39:59.709Z,24.20
2022-09-05T15:42:29.583Z,24.10
2022-09-05T15:45:11.136Z,24.10
2022-09-05T15:47:39.460Z,24.10
2022-09-05T15:50:21.999Z,24.10
2022-09-05T15:52:52.710Z,24.00
2022-09-05T15:55:26.840Z,24.00
2022-09-05T15:57:59.398Z,23.90
2022-09-05T16:00:32.186Z,23.90
2022-09-05T16:03:12.144Z,23.90
2022-09-05T16:10:35.103Z,23.80
2022-09-05T16:10:37.063Z,23.80
2022-09-05T16:12:06.223Z,23.80
2022-09-05T16:14:24.182Z,23.70
2022-09-05T16:23:23.410Z,23.60
2022-09-05T16:23:33.321Z,23.60
2022-09-05T16:23:34.888Z,23.60
2022-09-05T16:25:30.372Z,23.60
2022-09-05T16:28:11.026Z,23.80
2022-09-05T16:30:38.813Z,24.40
2022-09-05T16:33:11.514Z,25.10
2022-09-05T16:35:41.193Z,25.60
2022-09-05T16:38:10.847Z,26.00
2022-09-05T16:40:48.430Z,25.70
2022-09-05T16:43:22.987Z,25.00
2022-09-05T16:45:49.750Z,24.30
2022-09-05T16:48:16.445Z,24.20
2022-09-05T16:50:48.109Z,24.10
2022-09-05T16:53:30.127Z,23.90
2022-09-05T16:56:02.297Z,23.60
2022-09-05T16:58:35.095Z,23.20
2022-09-05T17:01:05.194Z,22.90
2022-09-05T17:03:47.002Z,22.70
2022-09-05T17:06:45.664Z,22.60
2022-09-05T17:09:20.777Z,22.40
2022-09-05T17:12:01.388Z,22.20
2022-09-05T17:14:37.845Z,22.20
2022-09-05T17:17:20.143Z,22.00
2022-09-05T17:20:07.254Z,21.90
2022-09-05T17:23:37.763Z,21.90
2022-09-05T17:29:31.260Z,21.70
2022-09-05T17:29:42.578Z,21.60
2022-09-05T17:31:55.022Z,21.50
2022-09-05T17:34:24.574Z,21.40
2022-09-05T17:37:14.767Z,21.30
2022-09-05T17:39:51.658Z,21.20
2022-09-05T17:42:20.015Z,21.00
2022-09-05T17:44:55.512Z,20.90
2022-09-05T17:47:35.265Z,20.80
2022-09-05T17:50:33.436Z,20.70
2022-09-05T17:53:25.117Z,20.60
2022-09-05T17:55:56.587Z,20.50
2022-09-05T17:58:24.648Z,20.40
2022-09-05T18:00:52.217Z,20.30
2022-09-05T18:03:38.432Z,20.30
2022-09-05T18:06:07.729Z,20.30
2022-09-05T18:08:52.828Z,20.20
2022-09-05T18:11:25.456Z,20.20
2022-09-05T18:13:54.129Z,20.20
2022-09-05T18:16:32.600Z,20.10
2022-09-05T18:19:32.598Z,20.10
2022-09-05T18:22:06.392Z,20.00
2022-09-05T18:24:52.539Z,20.00
2022-09-05T18:27:33.075Z,19.90
2022-09-05T18:30:19.302Z,19.90
2022-09-05T18:33:30.573Z,19.80
2022-09-05T18:35:50.782Z,19.80
2022-09-05T18:38:51.067Z,19.80
2022-09-05T18:41:24.700Z,19.70
2022-09-05T18:44:12.984Z,19.70
2022-09-05T18:46:46.864Z,19.60
2022-09-05T18:50:22.028Z,19.60
2022-09-05T18:52:11.276Z,19.50
2022-09-05T18:54:42.168Z,19.50
2022-09-05T18:57:19.937Z,19.40
2022-09-05T18:59:57.802Z,19.40
2022-09-05T19:02:58.665Z,19.40
2022-09-05T19:05:28.467Z,19.40
2022-09-05T19:07:59.783Z,19.30
2022-09-05T19:10:34.387Z,19.30
2022-09-05T19:13:09.197Z,19.30
2022-09-05T19:15:48.238Z,19.20
2022-09-05T19:18:27.467Z,19.20
2022-09-05T19:21:04.742Z,19.20
2022-09-05T19:23:56.060Z,19.10
2022-09-05T19:26:23.887Z,19.10
2022-09-05T19:36:49.645Z,19.00
2022-09-05T19:36:56.021Z,19.10
2022-09-05T19:37:05.312Z,19.00
2022-09-05T19:37:27.480Z,18.90
2022-09-05T19:45:48.931Z,18.80
2022-09-05T19:47:42.235Z,18.70
2022-09-05T19:47:44.714Z,18.60
2022-09-05T19:48:19.736Z,18.60
2022-09-05T19:50:47.379Z,18.50
2022-09-05T19:53:18.809Z,18.50
2022-09-05T19:55:45.964Z,18.50
2022-09-05T19:58:19.498Z,18.50
2022-09-05T20:00:50.399Z,18.40
2022-09-05T20:03:28.729Z,18.40
2022-09-05T20:06:14.262Z,18.40
2022-09-05T20:09:08.174Z,18.40
2022-09-05T20:11:37.447Z,18.30
2022-09-05T20:14:30.541Z,18.30
2022-09-05T20:17:17.316Z,18.30
2022-09-05T20:19:44.104Z,18.20
2022-09-05T20:22:47.532Z,18.20
2022-09-05T20:25:01.608Z,18.20
2022-09-05T20:27:30.012Z,18.10
2022-09-05T20:29:59.209Z,18.10
2022-09-05T20:32:38.826Z,18.00
2022-09-05T20:37:32.945Z,18.00
2022-09-05T20:43:10.204Z,18.00
2022-09-05T20:43:31.634Z,17.90
2022-09-05T20:43:52.519Z,17.90
2022-09-05T20:50:23.884Z,17.90
2022-09-05T20:54:08.017Z,17.90
2022-09-05T20:54:19.753Z,17.90
2022-09-05T20:55:40.384Z,17.80
2022-09-05T20:58:12.619Z,17.80
2022-09-05T21:01:02.431Z,17.80
2022-09-05T21:03:36.743Z,17.70
2022-09-05T21:06:11.830Z,17.70
2022-09-05T21:08:38.858Z,17.60
2022-09-05T21:11:06.876Z,17.60
2022-09-05T21:13:52.287Z,17.50
2022-09-05T21:16:27.901Z,17.50
2022-09-05T21:18:54.853Z,17.50
2022-09-05T21:21:29.571Z,17.40
2022-09-05T21:24:16.157Z,17.40
2022-09-05T21:26:45.721Z,17.40
2022-09-05T21:29:12.440Z,17.40
2022-09-05T21:31:54.787Z,17.40
2022-09-05T21:34:34.414Z,17.40
2022-09-05T21:37:07.206Z,17.30
2022-09-05T21:39:52.906Z,17.30
2022-09-05T21:43:54.361Z,17.30
2022-09-05T21:47:37.715Z,17.30
2022-09-05T21:48:03.113Z,17.30
2022-09-05T21:50:33.905Z,17.30
2022-09-05T21:53:25.415Z,17.20
2022-09-05T21:59:18.470Z,17.20
2022-09-05T21:59:29.711Z,17.20
2022-09-05T22:01:51.281Z,17.20
2022-09-05T22:04:11.175Z,17.20
2022-09-05T22:06:38.612Z,17.10
2022-09-05T22:09:13.587Z,17.10
2022-09-05T22:11:41.115Z,17.00
2022-09-05T22:14:09.101Z,17.00
2022-09-05T22:16:41.327Z,17.00
2022-09-05T22:19:12.676Z,17.00
2022-09-05T22:21:39.960Z,16.90
2022-09-05T22:24:08.837Z,16.90
2022-09-05T22:26:37.783Z,16.80
2022-09-05T22:29:07.055Z,16.80
2022-09-05T22:31:33.808Z,16.80
2022-09-05T22:34:00.593Z,16.80
2022-09-05T22:36:27.313Z,16.90
2022-09-05T22:38:54.043Z,16.80
2022-09-05T22:41:29.986Z,16.80
2022-09-05T22:43:57.346Z,16.70
2022-09-05T22:46:24.348Z,16.70
2022-09-05T22:48:51.330Z,16.70
2022-09-05T22:51:18.169Z,16.60
2022-09-05T22:53:44.872Z,16.60
2022-09-05T22:56:11.994Z,16.60
2022-09-05T22:58:38.795Z,16.60
2022-09-05T23:01:06.090Z,16.60
2022-09-05T23:03:33.551Z,16.60
2022-09-05T23:06:08.104Z,16.60
2022-09-05T23:08:35.006Z,16.50
2022-09-05T23:11:08.898Z,16.50
2022-09-05T23:13:35.565Z,16.40
2022-09-05T23:16:02.376Z,16.40
2022-09-05T23:18:29.649Z,16.40
2022-09-05T23:20:56.753Z,16.30
2022-09-05T23:23:23.429Z,16.30
2022-09-05T23:25:50.218Z,16.30
2022-09-05T23:28:16.911Z,16.30
2022-09-05T23:30:43.629Z,16.20
2022-09-05T23:33:10.848Z,16.20
2022-09-05T23:35:37.782Z,16.20
2022-09-05T23:38:08.555Z,16.10
2022-09-05T23:40:35.221Z,16.10
2022-09-05T23:43:01.913Z,16.10
2022-09-05T23:45:28.885Z,16.10
2022-09-05T23:47:56.977Z,16.00
2022-09-05T23:50:24.097Z,16.00
2022-09-05T23:52:50.848Z,16.00
2022-09-05T23:55:18.563Z,16.00
2022-09-05T23:57:45.800Z,16.00
